Time;durP1;ratioP1;P1;durP2;ratioP2;P2;SDS_P1;SDS_P2;PMS_P1;PMS_P2;Temp;Humidity;BMP_temperature;BMP_pressure;BME280_temperature;BME280_humidity;BME280_pressure;Samples;Min_cycle;Max_cycle;Signal;HPM_P1;HPM_P2
2021/07/10 00:00:13;;;;;;;10.57;7.07;;;19.10;99.90;;;;;;5073412;28;20202;-59
2021/07/10 00:02:40;;;;;;;13.23;7.72;;;19.10;99.90;;;;;;5073477;28;20197;-60
2021/07/10 00:05:07;;;;;;;10.75;7.38;;;19.10;99.90;;;;;;5073345;28;20186;-59
2021/07/10 00:07:33;;;;;;;12.90;7.38;;;19.00;99.90;;;;;;5073558;28;20615;-60
2021/07/10 00:10:00;;;;;;;12.65;7.60;;;19.00;99.90;;;;;;5073481;28;20176;-59
2021/07/10 00:12:26;;;;;;;12.07;7.03;;;19.00;99.90;;;;;;5072623;28;20549;-60
2021/07/10 00:14:52;;;;;;;10.07;7.57;;;19.00;99.90;;;;;;5073308;28;20177;-59
2021/07/10 00:17:18;;;;;;;10.15;7.18;;;19.00;99.90;;;;;;5073214;28;20173;-59
2021/07/10 00:19:44;;;;;;;13.55;7.32;;;19.00;99.90;;;;;;5072656;28;20193;-59
2021/07/10 00:22:10;;;;;;;12.02;7.68;;;19.00;99.90;;;;;;5073326;28;20213;-60
2021/07/10 00:24:36;;;;;;;12.48;7.90;;;19.00;99.90;;;;;;5072977;28;20162;-60
2021/07/10 00:27:03;;;;;;;17.05;7.63;;;18.90;99.90;;;;;;5073013;28;20181;-60
2021/07/10 00:29:29;;;;;;;9.88;7.88;;;18.90;99.90;;;;;;5073154;28;20526;-60
2021/07/10 00:31:55;;;;;;;19.10;7.90;;;18.90;99.90;;;;;;5072487;28;20213;-60
2021/07/10 00:34:21;;;;;;;12.68;7.28;;;18.90;99.90;;;;;;5072885;28;20513;-60
2021/07/10 00:36:47;;;;;;;9.85;7.20;;;18.90;99.90;;;;;;5072934;28;20182;-60
2021/07/10 00:39:13;;;;;;;12.82;7.10;;;18.80;99.90;;;;;;5071363;28;20642;-60
2021/07/10 00:41:39;;;;;;;20.77;6.85;;;18.80;99.90;;;;;;5072677;28;20237;-60
2021/07/10 00:44:05;;;;;;;13.07;6.55;;;18.80;99.90;;;;;;5072601;28;20182;-61
2021/07/10 00:46:31;;;;;;;15.30;6.72;;;18.80;99.90;;;;;;5072731;28;20169;-59
2021/07/10 00:48:58;;;;;;;9.40;7.07;;;18.90;99.90;;;;;;5072565;28;20178;-60
2021/07/10 00:51:24;;;;;;;14.38;6.10;;;18.80;99.90;;;;;;5071663;28;20630;-60
2021/07/10 00:53:50;;;;;;;10.40;7.18;;;18.90;99.90;;;;;;5072118;28;20226;-60
2021/07/10 00:56:16;;;;;;;10.60;6.60;;;18.80;99.90;;;;;;5072950;28;20170;-60
2021/07/10 00:58:43;;;;;;;11.85;6.85;;;18.90;99.90;;;;;;5072635;28;20514;-60
2021/07/10 01:01:09;;;;;;;13.13;5.65;;;18.80;99.90;;;;;;5071095;28;20308;-60
2021/07/10 01:03:35;;;;;;;8.48;6.20;;;18.80;99.90;;;;;;5071344;28;20260;-59
2021/07/10 01:06:01;;;;;;;8.00;6.05;;;18.90;99.90;;;;;;5072639;28;20181;-60
2021/07/10 01:08:27;;;;;;;10.93;6.13;;;18.90;99.90;;;;;;5072515;28;20174;-60
2021/07/10 01:10:54;;;;;;;9.55;6.15;;;18.90;99.90;;;;;;5072558;28;20181;-60
2021/07/10 01:13:20;;;;;;;9.23;5.93;;;18.80;99.90;;;;;;5072534;28;20221;-60
2021/07/10 01:15:46;;;;;;;11.07;6.13;;;18.90;99.90;;;;;;5071939;28;20623;-60
2021/07/10 01:18:12;;;;;;;13.93;6.28;;;18.90;99.90;;;;;;5072654;28;20174;-59
2021/07/10 01:20:46;;;;;;;7.15;5.57;;;18.90;99.90;;;;;;5054042;28;20237;-60
2021/07/10 01:23:12;;;;;;;9.20;5.47;;;18.90;99.90;;;;;;5072417;28;20169;-59
2021/07/10 01:25:38;;;;;;;9.95;5.80;;;18.90;99.90;;;;;;5072434;28;20653;-59
2021/07/10 01:28:04;;;;;;;10.10;5.97;;;18.90;99.90;;;;;;5072403;28;20181;-59
2021/07/10 01:30:30;;;;;;;11.68;6.25;;;18.90;99.90;;;;;;5072378;28;20195;-59
2021/07/10 01:32:56;;;;;;;8.65;5.70;;;18.80;99.90;;;;;;5071232;28;20169;-59
2021/07/10 01:35:22;;;;;;;8.52;6.40;;;18.80;99.90;;;;;;5072716;28;20614;-59
2021/07/10 01:37:49;;;;;;;8.68;6.03;;;18.80;99.90;;;;;;5072238;28;20186;-59
2021/07/10 01:40:16;;;;;;;7.78;5.65;;;18.80;99.90;;;;;;5053982;28;20182;-59
2021/07/10 01:42:42;;;;;;;9.27;5.10;;;18.80;99.90;;;;;;5071368;28;20678;-59
2021/07/10 01:45:09;;;;;;;11.35;6.18;;;18.80;99.90;;;;;;5072318;28;20181;-59
2021/07/10 01:47:35;;;;;;;7.43;5.68;;;18.80;99.90;;;;;;5071312;28;20533;-60
2021/07/10 01:50:03;;;;;;;7.07;4.88;;;18.80;99.90;;;;;;5075777;28;20190;-59
2021/07/10 01:52:29;;;;;;;9.55;5.43;;;18.80;99.90;;;;;;5075341;28;20554;-59
2021/07/10 01:54:55;;;;;;;12.68;5.22;;;18.80;99.90;;;;;;5076125;28;20174;-59
2021/07/10 01:57:21;;;;;;;10.95;5.93;;;18.80;99.90;;;;;;5076093;28;20550;-59
2021/07/10 01:59:47;;;;;;;10.07;5.55;;;18.80;99.90;;;;;;5075390;28;20186;-60
2021/07/10 02:02:13;;;;;;;7.60;5.55;;;18.80;99.90;;;;;;5075771;28;20577;-59
2021/07/10 02:04:46;;;;;;;9.82;5.50;;;18.80;99.90;;;;;;5075968;28;20185;-60
2021/07/10 02:07:13;;;;;;;10.07;5.30;;;18.80;99.90;;;;;;5075889;28;20642;-60
2021/07/10 02:09:39;;;;;;;9.13;5.50;;;18.80;99.90;;;;;;5075891;28;20178;-60
2021/07/10 02:12:06;;;;;;;14.15;5.05;;;18.80;99.90;;;;;;5075721;28;20641;-59
2021/07/10 02:14:32;;;;;;;8.52;5.78;;;18.80;99.90;;;;;;5075675;28;20174;-63
2021/07/10 02:16:59;;;;;;;8.15;5.65;;;18.80;99.90;;;;;;5075698;28;20170;-60
2021/07/10 02:19:25;;;;;;;7.88;5.55;;;18.80;99.90;;;;;;5075186;28;20182;-60
2021/07/10 02:21:51;;;;;;;8.13;5.78;;;18.70;99.90;;;;;;5075330;28;20218;-59
2021/07/10 02:24:17;;;;;;;15.45;5.80;;;18.80;99.90;;;;;;5075591;28;20172;-60
2021/07/10 02:26:43;;;;;;;6.68;5.25;;;18.70;99.90;;;;;;5057373;28;20186;-60
2021/07/10 02:29:09;;;;;;;11.30;5.28;;;18.70;99.90;;;;;;5075475;28;20197;-59
2021/07/10 02:31:35;;;;;;;8.10;5.55;;;18.80;99.90;;;;;;5075244;28;20189;-60
2021/07/10 02:34:02;;;;;;;12.02;5.55;;;18.80;99.90;;;;;;5057275;28;20551;-60
2021/07/10 02:36:29;;;;;;;7.82;5.53;;;18.80;99.90;;;;;;5075304;28;20185;-60
2021/07/10 02:38:55;;;;;;;9.13;6.00;;;18.80;99.90;;;;;;5073995;28;20237;-60
2021/07/10 02:41:21;;;;;;;6.78;5.45;;;18.70;99.90;;;;;;5074423;28;20610;-59
2021/07/10 02:43:47;;;;;;;10.50;5.65;;;18.70;99.90;;;;;;5075192;28;20170;-59
2021/07/10 02:46:16;;;;;;;9.23;5.80;;;18.70;99.90;;;;;;5075243;28;20639;-59
2021/07/10 02:48:46;;;;;;;9.98;5.75;;;18.70;99.90;;;;;;5075094;28;20166;-59
2021/07/10 02:51:12;;;;;;;10.82;5.65;;;18.60;99.90;;;;;;5074662;28;20185;-60
2021/07/10 02:53:39;;;;;;;9.18;5.53;;;18.60;99.90;;;;;;5073685;28;20166;-59
2021/07/10 02:56:05;;;;;;;11.43;6.70;;;18.60;99.90;;;;;;5074492;28;20212;-60
2021/07/10 02:58:31;;;;;;;8.52;5.88;;;18.50;99.90;;;;;;5074909;28;20174;-59
2021/07/10 03:00:57;;;;;;;10.77;6.15;;;18.40;99.90;;;;;;5072272;28;20206;-59
2021/07/10 03:03:23;;;;;;;11.45;6.43;;;18.40;99.90;;;;;;5073773;28;20206;-59
2021/07/10 03:05:49;;;;;;;9.50;6.30;;;18.30;99.90;;;;;;5074719;28;20174;-59
2021/07/10 03:08:16;;;;;;;11.35;7.15;;;18.20;99.90;;;;;;5073489;28;20521;-59
2021/07/10 03:10:42;;;;;;;15.07;6.60;;;18.20;99.90;;;;;;5074695;28;20181;-60
2021/07/10 03:13:08;;;;;;;13.80;6.65;;;18.20;99.90;;;;;;5074752;28;20605;-59
2021/07/10 03:15:34;;;;;;;9.15;7.18;;;18.10;99.90;;;;;;5074525;28;20185;-59
2021/07/10 03:18:00;;;;;;;15.15;7.57;;;18.10;99.90;;;;;;5074476;28;20165;-59
2021/07/10 03:20:27;;;;;;;13.00;7.93;;;18.00;99.90;;;;;;5074043;28;20181;-60
2021/07/10 03:22:53;;;;;;;11.40;7.68;;;18.00;99.90;;;;;;5074172;28;20205;-60
2021/07/10 03:25:19;;;;;;;15.63;8.02;;;17.90;99.90;;;;;;5074328;28;20162;-60
2021/07/10 03:27:46;;;;;;;16.20;8.55;;;17.90;99.90;;;;;;5074250;28;20182;-60
2021/07/10 03:30:14;;;;;;;10.98;7.88;;;17.80;99.90;;;;;;5074077;28;20162;-60
2021/07/10 03:32:40;;;;;;;17.63;8.32;;;17.70;99.90;;;;;;5072901;28;20182;-60
2021/07/10 03:35:08;;;;;;;15.35;9.10;;;17.70;99.90;;;;;;5073819;28;20197;-60
2021/07/10 03:37:34;;;;;;;14.63;9.23;;;17.60;99.90;;;;;;5074031;28;20650;-60
2021/07/10 03:40:00;;;;;;;20.02;9.75;;;17.60;99.90;;;;;;5073812;28;20182;-60
2021/07/10 03:42:26;;;;;;;16.33;9.90;;;17.60;99.90;;;;;;5073708;28;20678;-60
2021/07/10 03:44:52;;;;;;;14.68;9.98;;;17.50;99.90;;;;;;5073978;28;20181;-60
2021/07/10 03:47:18;;;;;;;15.02;9.65;;;17.50;99.90;;;;;;5072881;28;20595;-60
2021/07/10 03:49:44;;;;;;;15.43;8.05;;;17.40;99.90;;;;;;5073657;28;20185;-60
2021/07/10 03:52:11;;;;;;;11.18;6.88;;;17.30;99.90;;;;;;5073268;28;20638;-61
2021/07/10 03:54:37;;;;;;;15.85;6.72;;;17.20;99.90;;;;;;5072528;28;20181;-60
2021/07/10 03:57:03;;;;;;;15.13;7.00;;;17.10;99.90;;;;;;5073794;28;20170;-60
2021/07/10 03:59:29;;;;;;;12.02;7.90;;;17.00;99.90;;;;;;5072405;28;20194;-60
2021/07/10 04:01:55;;;;;;;11.07;7.70;;;16.90;99.90;;;;;;5073389;28;20225;-60
2021/07/10 04:04:21;;;;;;;18.60;7.88;;;16.80;99.90;;;;;;5073701;28;20177;-61
2021/07/10 04:06:48;;;;;;;12.10;7.32;;;16.80;99.90;;;;;;5072253;28;20181;-60
2021/07/10 04:09:14;;;;;;;13.73;7.28;;;16.70;99.90;;;;;;5073611;28;20169;-60
2021/07/10 04:11:40;;;;;;;15.43;6.53;;;16.70;99.90;;;;;;5073168;28;20174;-61
2021/07/10 04:14:06;;;;;;;10.77;6.88;;;16.60;99.90;;;;;;5073393;28;20532;-61
2021/07/10 04:16:32;;;;;;;8.95;6.78;;;16.50;99.90;;;;;;5073234;28;20185;-61
2021/07/10 04:18:59;;;;;;;15.90;6.75;;;16.40;99.90;;;;;;5072960;28;20197;-60
2021/07/10 04:21:25;;;;;;;12.73;8.48;;;16.40;99.90;;;;;;5054665;28;20213;-60
2021/07/10 04:23:51;;;;;;;16.02;6.95;;;16.30;99.90;;;;;;5073188;28;20617;-60
2021/07/10 04:26:17;;;;;;;12.60;6.50;;;16.20;99.90;;;;;;5073045;28;20651;-61
2021/07/10 04:28:43;;;;;;;10.65;6.30;;;16.20;99.90;;;;;;5055040;28;20182;-60
2021/07/10 04:31:09;;;;;;;11.95;6.85;;;16.10;99.90;;;;;;5073120;28;20170;-60
2021/07/10 04:33:35;;;;;;;13.43;7.95;;;16.10;99.90;;;;;;5072953;28;20522;-60
2021/07/10 04:36:02;;;;;;;15.75;11.15;;;16.10;99.90;;;;;;5071810;28;20173;-61
2021/07/10 04:38:28;;;;;;;12.48;8.32;;;16.10;99.90;;;;;;5072983;28;20174;-61
2021/07/10 04:40:54;;;;;;;14.27;8.13;;;16.10;99.90;;;;;;5072595;28;20215;-61
2021/07/10 04:43:20;;;;;;;12.95;8.30;;;16.10;99.90;;;;;;5072598;28;20201;-61
2021/07/10 04:45:46;;;;;;;16.95;9.50;;;16.10;99.90;;;;;;5072895;28;20670;-61
2021/07/10 04:48:12;;;;;;;16.23;8.75;;;16.10;99.90;;;;;;5073085;28;20185;-61
2021/07/10 04:50:38;;;;;;;13.32;8.85;;;16.10;99.90;;;;;;5072213;28;20182;-60
2021/07/10 04:53:04;;;;;;;17.88;8.77;;;16.00;99.90;;;;;;5072834;28;20173;-61
2021/07/10 04:55:30;;;;;;;20.20;11.52;;;16.10;99.90;;;;;;5072794;28;20619;-61
2021/07/10 04:57:56;;;;;;;19.95;12.32;;;16.10;99.90;;;;;;5072298;28;20190;-61
2021/07/10 05:00:24;;;;;;;17.48;9.77;;;16.10;99.90;;;;;;5054229;28;20558;-62
2021/07/10 05:02:50;;;;;;;18.05;10.02;;;16.10;99.90;;;;;;5072443;28;20218;-62
2021/07/10 05:05:17;;;;;;;15.02;9.30;;;16.00;99.90;;;;;;5073151;28;20597;-61
2021/07/10 05:07:44;;;;;;;14.30;9.43;;;16.10;99.90;;;;;;5054731;28;20346;-61
2021/07/10 05:10:10;;;;;;;17.98;9.88;;;16.00;99.90;;;;;;5072625;28;20159;-60
2021/07/10 05:12:36;;;;;;;16.67;9.27;;;16.10;99.90;;;;;;5072652;28;20178;-61
2021/07/10 05:15:03;;;;;;;16.83;10.23;;;16.00;99.90;;;;;;5072670;28;20170;-61
2021/07/10 05:17:29;;;;;;;21.20;9.82;;;16.10;99.90;;;;;;5072463;28;20638;-61
2021/07/10 05:19:55;;;;;;;14.15;10.07;;;16.10;99.90;;;;;;5072135;28;20174;-61
2021/07/10 05:22:21;;;;;;;22.25;10.70;;;16.10;99.90;;;;;;5072464;28;20692;-61
2021/07/10 05:24:47;;;;;;;18.95;10.10;;;16.10;99.90;;;;;;5076472;28;20169;-61
2021/07/10 05:27:13;;;;;;;15.27;10.07;;;16.10;99.90;;;;;;5076392;28;20185;-61
2021/07/10 05:29:39;;;;;;;15.32;10.38;;;16.10;99.90;;;;;;5076553;28;20174;-61
2021/07/10 05:32:06;;;;;;;20.73;10.98;;;16.10;99.90;;;;;;5076449;28;20170;-61
2021/07/10 05:34:32;;;;;;;21.55;11.07;;;16.10;99.90;;;;;;5057807;28;20182;-61
2021/07/10 05:36:58;;;;;;;19.83;10.82;;;16.10;99.90;;;;;;5076071;28;20204;-61
2021/07/10 05:39:24;;;;;;;17.70;11.52;;;16.10;99.90;;;;;;5076268;28;20627;-61
2021/07/10 05:41:50;;;;;;;19.60;11.20;;;16.10;99.90;;;;;;5075719;28;20232;-61
2021/07/10 05:44:16;;;;;;;22.30;15.23;;;16.10;99.90;;;;;;5076321;28;20177;-61
2021/07/10 05:46:42;;;;;;;18.95;11.65;;;16.20;99.90;;;;;;5076197;28;20178;-61
2021/07/10 05:49:08;;;;;;;21.85;15.40;;;16.10;99.90;;;;;;5075739;28;20197;-60
2021/07/10 05:51:34;;;;;;;30.75;12.52;;;16.20;99.90;;;;;;5075997;28;20174;-61
2021/07/10 05:54:00;;;;;;;25.20;13.15;;;16.20;99.90;;;;;;5075600;28;20198;-61
2021/07/10 05:56:27;;;;;;;22.83;15.38;;;16.20;99.90;;;;;;5076094;28;20177;-61
2021/07/10 05:58:53;;;;;;;23.90;12.95;;;16.20;99.90;;;;;;5074234;28;20190;-61
2021/07/10 06:01:19;;;;;;;23.85;11.65;;;16.20;99.90;;;;;;5075894;28;20177;-60
2021/07/10 06:03:45;;;;;;;21.17;12.25;;;16.20;99.90;;;;;;5074491;28;20604;-61
2021/07/10 06:06:11;;;;;;;15.82;10.95;;;16.20;99.90;;;;;;5075810;28;20177;-61
2021/07/10 06:08:37;;;;;;;24.27;15.15;;;16.20;99.90;;;;;;5057697;28;20182;-62
2021/07/10 06:11:03;;;;;;;16.35;11.10;;;16.20;99.90;;;;;;5075768;28;20170;-61
2021/07/10 06:13:30;;;;;;;20.73;11.40;;;16.30;99.90;;;;;;5075694;28;20162;-61
2021/07/10 06:15:56;;;;;;;20.02;11.73;;;16.30;99.90;;;;;;5075610;28;20185;-61
2021/07/10 06:18:22;;;;;;;20.55;12.93;;;16.30;99.90;;;;;;5074591;28;20190;-61
2021/07/10 06:20:48;;;;;;;21.30;14.98;;;16.30;99.90;;;;;;5075263;28;20197;-62
2021/07/10 06:23:17;;;;;;;24.85;16.10;;;16.30;99.90;;;;;;5075489;28;20558;-62
2021/07/10 06:25:43;;;;;;;21.75;12.65;;;16.30;99.90;;;;;;5074575;28;20170;-62
2021/07/10 06:28:09;;;;;;;24.35;13.85;;;16.30;99.90;;;;;;5075378;28;20174;-62
2021/07/10 06:30:36;;;;;;;19.02;12.80;;;16.30;99.90;;;;;;5075453;28;20649;-62
2021/07/10 06:33:02;;;;;;;18.83;12.07;;;16.30;99.90;;;;;;5075483;28;20173;-62
2021/07/10 06:35:28;;;;;;;17.48;11.48;;;16.30;99.90;;;;;;5074341;28;20189;-61
2021/07/10 06:37:55;;;;;;;20.40;12.45;;;16.30;99.90;;;;;;5075401;28;20196;-62
2021/07/10 06:40:21;;;;;;;24.33;14.30;;;16.30;99.90;;;;;;5075141;28;20629;-63
2021/07/10 06:42:47;;;;;;;16.35;11.48;;;16.30;99.90;;;;;;5074957;28;20232;-62
2021/07/10 06:45:14;;;;;;;19.45;14.38;;;16.30;99.90;;;;;;5073989;28;20177;-61
2021/07/10 06:47:41;;;;;;;19.73;12.18;;;16.40;99.90;;;;;;5075293;28;20174;-61
2021/07/10 06:50:08;;;;;;;16.45;10.25;;;16.40;99.90;;;;;;5075058;28;20162;-62
2021/07/10 06:52:34;;;;;;;21.65;11.27;;;16.40;99.90;;;;;;5075011;28;20661;-63
2021/07/10 06:55:00;;;;;;;18.50;12.95;;;16.40;99.90;;;;;;5073892;28;20182;-62
2021/07/10 06:57:26;;;;;;;16.65;10.48;;;16.40;99.90;;;;;;5074881;28;20658;-62
2021/07/10 06:59:52;;;;;;;19.65;13.35;;;16.40;99.90;;;;;;5074800;28;20185;-62
2021/07/10 07:02:18;;;;;;;15.88;10.07;;;16.40;99.90;;;;;;5074795;28;20566;-62
2021/07/10 07:04:44;;;;;;;17.70;11.45;;;16.30;99.90;;;;;;5073383;28;20177;-62
2021/07/10 07:07:11;;;;;;;15.93;9.82;;;16.30;99.90;;;;;;5074788;28;20534;-62
2021/07/10 07:09:37;;;;;;;14.60;11.23;;;16.30;99.90;;;;;;5073626;28;20166;-62
2021/07/10 07:12:04;;;;;;;17.48;10.02;;;16.40;99.90;;;;;;5073436;28;20181;-62
2021/07/10 07:14:30;;;;;;;16.75;10.60;;;16.30;99.90;;;;;;5074672;28;20166;-62
2021/07/10 07:16:58;;;;;;;17.55;10.45;;;16.40;99.90;;;;;;5073384;28;20195;-62
2021/07/10 07:19:30;;;;;;;18.17;11.35;;;16.40;99.90;;;;;;5074140;28;20529;-62
2021/07/10 07:21:56;;;;;;;20.27;13.40;;;16.40;99.90;;;;;;5074400;28;20189;-62
2021/07/10 07:24:22;;;;;;;15.55;10.27;;;16.40;99.90;;;;;;5074461;28;20170;-62
2021/07/10 07:26:49;;;;;;;19.58;12.45;;;16.40;99.90;;;;;;5074425;28;20181;-62
2021/07/10 07:29:15;;;;;;;16.85;10.85;;;16.40;99.90;;;;;;5074364;28;20182;-62
2021/07/10 07:31:41;;;;;;;17.60;10.15;;;16.40;99.90;;;;;;5074189;28;20170;-62
2021/07/10 07:34:07;;;;;;;13.73;9.95;;;16.40;99.90;;;;;;5074361;28;20177;-62
2021/07/10 07:36:34;;;;;;;16.05;10.82;;;16.40;99.90;;;;;;5074250;28;20170;-62
2021/07/10 07:39:01;;;;;;;15.95;10.02;;;16.40;99.90;;;;;;5073988;28;20174;-62
2021/07/10 07:41:28;;;;;;;20.00;10.30;;;16.40;99.90;;;;;;5073414;28;20693;-63
2021/07/10 07:43:54;;;;;;;15.63;10.32;;;16.50;99.90;;;;;;5074073;28;20651;-62
2021/07/10 07:46:20;;;;;;;14.15;10.63;;;16.50;99.90;;;;;;5072879;28;20185;-62
2021/07/10 07:48:46;;;;;;;13.82;10.23;;;16.50;99.90;;;;;;5073936;28;20185;-62
2021/07/10 07:51:15;;;;;;;15.25;12.68;;;16.50;99.90;;;;;;5073620;28;20188;-62
2021/07/10 07:53:44;;;;;;;16.13;11.15;;;16.50;99.90;;;;;;5073696;28;20174;-62
2021/07/10 07:56:11;;;;;;;16.73;10.80;;;16.50;99.90;;;;;;5073744;28;20177;-63
2021/07/10 07:58:39;;;;;;;16.55;11.57;;;16.50;99.90;;;;;;5073658;28;20182;-63
2021/07/10 08:01:06;;;;;;;13.93;10.70;;;16.60;99.90;;;;;;5072682;28;20190;-62
2021/07/10 08:03:32;;;;;;;15.18;11.25;;;16.60;99.90;;;;;;5073317;28;20213;-61
2021/07/10 08:05:58;;;;;;;15.85;11.93;;;16.60;99.90;;;;;;5073819;28;20178;-62
2021/07/10 08:08:25;;;;;;;17.48;11.30;;;16.60;99.90;;;;;;5073057;28;20186;-62
2021/07/10 08:10:51;;;;;;;14.52;11.05;;;16.60;99.90;;;;;;5073358;28;20173;-62
2021/07/10 08:13:17;;;;;;;17.70;11.65;;;16.60;99.90;;;;;;5073400;28;20290;-62
2021/07/10 08:15:43;;;;;;;15.90;11.32;;;16.60;99.90;;;;;;5073149;28;20181;-62
2021/07/10 08:18:09;;;;;;;31.08;11.95;;;16.60;99.90;;;;;;5072999;28;20194;-62
2021/07/10 08:20:35;;;;;;;14.43;11.40;;;16.50;99.90;;;;;;5072941;28;20181;-63
2021/07/10 08:23:01;;;;;;;16.27;11.38;;;16.60;99.90;;;;;;5073016;28;20542;-63
2021/07/10 08:25:28;;;;;;;16.13;11.20;;;16.60;99.90;;;;;;5055274;28;20186;-62
2021/07/10 08:27:54;;;;;;;17.30;12.77;;;16.60;99.90;;;;;;5073269;28;20169;-62
2021/07/10 08:30:20;;;;;;;16.35;11.73;;;16.60;99.90;;;;;;5071817;28;20170;-63
2021/07/10 08:32:47;;;;;;;15.23;11.00;;;16.70;99.90;;;;;;5073127;28;20651;-63
2021/07/10 08:35:14;;;;;;;18.52;10.85;;;16.70;99.90;;;;;;5072916;28;20190;-63
2021/07/10 08:37:40;;;;;;;16.88;11.43;;;16.80;99.90;;;;;;5072951;28;20166;-63
2021/07/10 08:40:06;;;;;;;16.63;11.40;;;16.90;99.90;;;;;;5073225;28;20608;-63
2021/07/10 08:42:33;;;;;;;18.13;10.60;;;16.90;99.90;;;;;;5071464;28;20694;-63
2021/07/10 08:45:01;;;;;;;16.35;10.35;;;16.90;99.90;;;;;;5071774;28;20170;-63
2021/07/10 08:47:27;;;;;;;15.20;9.77;;;17.00;99.90;;;;;;5071777;28;20181;-63
2021/07/10 08:49:53;;;;;;;12.20;8.82;;;17.10;99.90;;;;;;5071543;28;20166;-63
2021/07/10 08:52:19;;;;;;;10.30;8.73;;;17.10;99.90;;;;;;5072946;28;20170;-63
2021/07/10 08:54:45;;;;;;;10.10;8.50;;;17.10;99.90;;;;;;5071801;28;20166;-63
2021/07/10 08:57:13;;;;;;;12.27;9.07;;;17.30;99.90;;;;;;5072119;28;20173;-63
2021/07/10 08:59:39;;;;;;;10.48;8.48;;;17.40;99.90;;;;;;5071166;28;20185;-62
2021/07/10 09:02:05;;;;;;;10.88;8.07;;;17.50;99.90;;;;;;5072718;28;20212;-63
2021/07/10 09:04:31;;;;;;;11.73;7.70;;;17.50;99.90;;;;;;5072981;28;20182;-63
2021/07/10 09:06:57;;;;;;;10.65;8.38;;;17.50;99.90;;;;;;5072712;28;20192;-63
2021/07/10 09:09:42;;;;;;;10.43;7.00;;;17.50;99.90;;;;;;5072664;28;20177;-63
2021/07/10 09:12:09;;;;;;;10.52;8.00;;;17.50;99.90;;;;;;5072736;28;20203;-63
2021/07/10 09:14:35;;;;;;;12.98;7.35;;;17.60;99.90;;;;;;5072660;28;20522;-63
2021/07/10 09:17:24;;;;;;;8.45;6.22;;;17.40;99.90;;;;;;5072616;28;20173;-63
2021/07/10 09:19:52;;;;;;;11.25;6.72;;;17.40;99.90;;;;;;5072238;28;20162;-63
2021/07/10 09:22:29;;;;;;;11.27;7.35;;;17.30;99.90;;;;;;5054124;28;20229;-62
2021/07/10 09:24:58;;;;;;;14.95;8.25;;;17.30;99.90;;;;;;5072717;28;20165;-62
2021/07/10 09:27:24;;;;;;;8.13;7.15;;;17.40;99.90;;;;;;5072448;28;20619;-63
2021/07/10 09:29:50;;;;;;;10.57;7.05;;;17.30;99.90;;;;;;5072540;28;20200;-62
2021/07/10 09:32:21;;;;;;;8.77;6.35;;;17.20;99.90;;;;;;5072411;28;20177;-62
2021/07/10 09:34:50;;;;;;;8.82;7.18;;;17.20;99.90;;;;;;5072604;28;20181;-62
2021/07/10 09:37:24;;;;;;;11.30;6.07;;;17.20;99.90;;;;;;5072500;28;20166;-62
2021/07/10 09:39:55;;;;;;;8.63;6.30;;;17.20;99.90;;;;;;5072276;28;20162;-62
2021/07/10 09:42:25;;;;;;;7.90;6.68;;;17.20;99.90;;;;;;5072103;28;20231;-62
2021/07/10 09:44:51;;;;;;;7.63;6.45;;;17.20;99.90;;;;;;5072391;28;20173;-62
2021/07/10 09:47:25;;;;;;;7.93;6.63;;;17.10;99.90;;;;;;5070401;28;20178;-62
2021/07/10 09:49:51;;;;;;;9.48;6.38;;;17.20;99.90;;;;;;5072096;28;20162;-62
2021/07/10 09:52:21;;;;;;;9.55;6.90;;;17.20;99.90;;;;;;5072228;28;20210;-62
2021/07/10 09:54:51;;;;;;;8.95;5.90;;;17.20;99.90;;;;;;5072148;28;20170;-62
2021/07/10 09:57:18;;;;;;;7.82;6.07;;;17.20;99.90;;;;;;5072229;28;20169;-62
2021/07/10 09:59:50;;;;;;;8.98;5.82;;;17.20;99.90;;;;;;5072066;28;20201;-62
2021/07/10 10:02:18;;;;;;;6.90;5.40;;;17.20;99.90;;;;;;5071933;28;20193;-62
2021/07/10 10:04:44;;;;;;;8.00;5.72;;;17.10;99.90;;;;;;5070895;28;20201;-63
2021/07/10 10:07:20;;;;;;;7.60;5.88;;;17.20;99.90;;;;;;5070818;28;20182;-62
2021/07/10 10:09:56;;;;;;;10.32;5.85;;;17.30;99.90;;;;;;5074018;28;20242;-62
2021/07/10 10:12:23;;;;;;;7.50;5.72;;;17.40;99.90;;;;;;5074612;28;20223;-62
2021/07/10 10:14:54;;;;;;;7.05;5.47;;;17.30;99.90;;;;;;5075711;28;20634;-62
2021/07/10 10:17:21;;;;;;;8.02;5.50;;;17.30;99.90;;;;;;5075636;28;20185;-62
2021/07/10 10:19:47;;;;;;;7.47;4.60;;;17.40;99.90;;;;;;5075264;28;20532;-62
2021/07/10 10:22:14;;;;;;;5.30;4.32;;;17.30;99.90;;;;;;5075753;28;20181;-62
2021/07/10 10:24:42;;;;;;;6.53;4.55;;;17.30;99.90;;;;;;5075301;28;20192;-62
2021/07/10 10:27:08;;;;;;;10.45;4.90;;;17.40;99.90;;;;;;5073797;28;20193;-62
2021/07/10 10:29:35;;;;;;;8.50;4.82;;;17.40;99.90;;;;;;5074823;28;20669;-62
2021/07/10 10:32:02;;;;;;;4.75;3.83;;;17.40;99.90;;;;;;5074884;28;20197;-63
2021/07/10 10:34:28;;;;;;;4.28;3.70;;;17.40;99.90;;;;;;5074244;28;20170;-62
2021/07/10 10:36:55;;;;;;;5.50;3.38;;;17.40;99.90;;;;;;5075085;28;20189;-62
2021/07/10 10:39:26;;;;;;;6.80;3.47;;;17.40;99.90;;;;;;5074452;28;20201;-61
2021/07/10 10:42:07;;;;;;;4.68;3.28;;;17.40;99.90;;;;;;5073843;28;20206;-62
2021/07/10 10:44:36;;;;;;;4.90;3.95;;;17.40;99.90;;;;;;5075092;28;20181;-62
2021/07/10 10:47:02;;;;;;;7.68;3.17;;;17.30;99.90;;;;;;5073986;28;20162;-62
2021/07/10 10:49:39;;;;;;;3.83;2.88;;;17.30;99.90;;;;;;5074859;28;20181;-62
2021/07/10 10:52:29;;;;;;;3.40;2.80;;;17.30;99.90;;;;;;5074210;28;20215;-68
2021/07/10 10:55:00;;;;;;;2.75;2.38;;;17.30;99.90;;;;;;5074034;28;20158;-68
2021/07/10 10:57:33;;;;;;;3.15;2.60;;;17.30;99.90;;;;;;5073717;28;20169;-62
2021/07/10 10:59:59;;;;;;;3.47;2.88;;;17.30;99.90;;;;;;5073579;28;20552;-62
2021/07/10 11:02:25;;;;;;;3.53;2.55;;;17.30;99.90;;;;;;5074439;28;20201;-63
2021/07/10 11:04:57;;;;;;;5.15;3.13;;;17.30;99.90;;;;;;5074684;28;20181;-63
2021/07/10 11:07:27;;;;;;;3.53;2.80;;;17.30;99.90;;;;;;5074706;28;20165;-63
2021/07/10 11:10:02;;;;;;;3.40;3.10;;;17.30;99.90;;;;;;5073269;28;20177;-63
2021/07/10 11:12:53;;;;;;;4.75;3.45;;;17.40;99.90;;;;;;5074493;28;20637;-63
2021/07/10 11:15:25;;;;;;;4.10;3.33;;;17.40;99.90;;;;;;5073826;28;20186;-62
2021/07/10 11:17:57;;;;;;;6.18;3.47;;;17.50;99.90;;;;;;5055848;28;20541;-63
2021/07/10 11:20:44;;;;;;;3.20;2.90;;;17.50;99.90;;;;;;5073055;28;20529;-64
2021/07/10 11:23:30;;;;;;;3.40;3.10;;;17.40;99.90;;;;;;5074272;28;20561;-63
2021/07/10 11:25:58;;;;;;;4.18;3.67;;;17.40;99.90;;;;;;5072818;28;20170;-62
2021/07/10 11:28:26;;;;;;;4.82;3.53;;;17.40;99.90;;;;;;5073028;28;20162;-62
2021/07/10 11:30:54;;;;;;;4.25;3.38;;;17.40;99.90;;;;;;5073289;28;20194;-63
2021/07/10 11:34:02;;;;;;;3.78;3.15;;;17.50;99.90;;;;;;5074052;28;20701;-63
2021/07/10 11:36:31;;;;;;;4.28;3.58;;;17.40;99.90;;;;;;5074071;28;20177;-62
2021/07/10 11:38:57;;;;;;;6.78;3.42;;;17.50;99.90;;;;;;5073187;28;20193;-62
2021/07/10 11:41:34;;;;;;;3.47;3.10;;;17.50;99.90;;;;;;5073403;28;20209;-63
2021/07/10 11:44:13;;;;;;;4.03;3.40;;;17.50;99.90;;;;;;5072610;28;20208;-62
2021/07/10 11:47:01;;;;;;;3.33;2.95;;;17.60;99.90;;;;;;5073718;28;20190;-62
2021/07/10 11:49:55;;;;;;;4.10;3.33;;;17.70;99.90;;;;;;5073439;28;20181;-63
2021/07/10 11:52:21;;;;;;;5.32;3.13;;;17.60;99.90;;;;;;5072346;28;20544;-62
2021/07/10 11:54:49;;;;;;;3.20;2.90;;;17.50;99.90;;;;;;5073785;28;20173;-63
2021/07/10 11:57:15;;;;;;;3.92;3.25;;;17.40;99.90;;;;;;5073616;28;20171;-62
2021/07/10 11:59:41;;;;;;;4.55;3.40;;;17.40;99.90;;;;;;5073460;28;20166;-63
2021/07/10 12:02:24;;;;;;;6.07;4.20;;;17.40;99.90;;;;;;5072081;28;20190;-63
2021/07/10 12:05:06;;;;;;;5.50;4.00;;;17.40;99.90;;;;;;5073388;28;20297;-63
2021/07/10 12:07:34;;;;;;;5.25;4.00;;;17.50;99.90;;;;;;5073652;28;20177;-63
2021/07/10 12:10:00;;;;;;;5.72;3.40;;;17.50;99.90;;;;;;5072118;28;20177;-63
2021/07/10 12:12:26;;;;;;;4.72;3.97;;;17.50;99.90;;;;;;5073319;28;20644;-62
2021/07/10 12:14:56;;;;;;;6.32;4.05;;;17.60;99.90;;;;;;5073305;28;20177;-62
2021/07/10 12:17:23;;;;;;;5.95;4.18;;;17.60;99.90;;;;;;5054709;28;20553;-62
2021/07/10 12:19:49;;;;;;;6.03;3.95;;;17.60;99.90;;;;;;5070882;28;20558;-62
2021/07/10 12:22:16;;;;;;;4.30;3.90;;;17.50;99.90;;;;;;5072689;28;20577;-62
2021/07/10 12:24:42;;;;;;;5.15;4.30;;;17.50;99.90;;;;;;5073021;28;20647;-62
2021/07/10 12:27:12;;;;;;;4.35;3.95;;;17.50;99.90;;;;;;5071874;28;20733;-62
2021/07/10 12:29:51;;;;;;;5.45;3.78;;;17.50;99.90;;;;;;5072302;28;20519;-62
2021/07/10 12:32:17;;;;;;;7.88;4.40;;;17.50;99.90;;;;;;5070739;28;20158;-62
2021/07/10 12:34:51;;;;;;;3.90;3.50;;;17.60;99.90;;;;;;5073190;28;20170;-62
2021/07/10 12:37:29;;;;;;;4.38;3.70;;;17.60;99.90;;;;;;5072822;28;20173;-62
2021/07/10 12:40:06;;;;;;;7.95;4.00;;;17.60;99.90;;;;;;5072711;28;20166;-62